sensor_id;sensor_type;location;lat;lon;timestamp;P1;durP1;ratioP1;P2;durP2;ratioP2
16391;SDS011;8305;-33.882;151.134;2023-09-30T00:01:47;5.75;;;4.90;;
16391;SDS011;8305;-33.882;151.134;2023-09-30T00:04:18;7.35;;;5.22;;
16391;SDS011;8305;-33.882;151.134;2023-09-30T00:06:49;5.70;;;5.10;;
16391;SDS011;8305;-33.882;151.134;2023-09-30T00:09:20;6.22;;;5.10;;
16391;SDS011;8305;-33.882;151.134;2023-09-30T00:11:56;7.10;;;5.20;;
16391;SDS011;8305;-33.882;151.134;2023-09-30T00:14:26;6.35;;;5.00;;
16391;SDS011;8305;-33.882;151.134;2023-09-30T00:16:58;7.15;;;5.00;;
16391;SDS011;8305;-33.882;151.134;2023-09-30T00:19:29;5.93;;;4.70;;
16391;SDS011;8305;-33.882;151.134;2023-09-30T00:22:00;6.90;;;5.13;;
16391;SDS011;8305;-33.882;151.134;2023-09-30T00:24:31;5.55;;;4.72;;
16391;SDS011;8305;-33.882;151.134;2023-09-30T00:27:04;6.50;;;4.80;;
16391;SDS011;8305;-33.882;151.134;2023-09-30T00:29:34;6.03;;;4.70;;
16391;SDS011;8305;-33.882;151.134;2023-09-30T00:32:05;6.45;;;4.38;;
16391;SDS011;8305;-33.882;151.134;2023-09-30T00:34:36;7.15;;;4.95;;
16391;SDS011;8305;-33.882;151.134;2023-09-30T00:37:07;5.78;;;4.95;;
16391;SDS011;8305;-33.882;151.134;2023-09-30T00:39:37;6.05;;;5.07;;
16391;SDS011;8305;-33.882;151.134;2023-09-30T00:42:10;6.13;;;4.85;;
16391;SDS011;8305;-33.882;151.134;2023-09-30T00:44:41;6.60;;;4.93;;
16391;SDS011;8305;-33.882;151.134;2023-09-30T00:47:11;6.18;;;5.00;;
16391;SDS011;8305;-33.882;151.134;2023-09-30T00:49:43;5.40;;;4.60;;
16391;SDS011;8305;-33.882;151.134;2023-09-30T00:52:14;5.40;;;4.35;;
16391;SDS011;8305;-33.882;151.134;2023-09-30T00:54:45;5.32;;;4.30;;
16391;SDS011;8305;-33.882;151.134;2023-09-30T00:57:19;6.18;;;4.68;;
16391;SDS011;8305;-33.882;151.134;2023-09-30T00:59:51;5.13;;;4.40;;
16391;SDS011;8305;-33.882;151.134;2023-09-30T01:02:22;5.28;;;4.10;;
16391;SDS011;8305;-33.882;151.134;2023-09-30T01:04:56;4.82;;;4.32;;
16391;SDS011;8305;-33.882;151.134;2023-09-30T01:07:27;5.60;;;4.63;;
16391;SDS011;8305;-33.882;151.134;2023-09-30T01:09:58;5.88;;;4.28;;
16391;SDS011;8305;-33.882;151.134;2023-09-30T01:12:32;4.93;;;4.30;;
16391;SDS011;8305;-33.882;151.134;2023-09-30T01:15:03;5.70;;;4.13;;
16391;SDS011;8305;-33.882;151.134;2023-09-30T01:17:35;7.47;;;4.70;;
16391;SDS011;8305;-33.882;151.134;2023-09-30T01:20:06;5.35;;;4.32;;
16391;SDS011;8305;-33.882;151.134;2023-09-30T01:22:43;5.43;;;3.97;;
16391;SDS011;8305;-33.882;151.134;2023-09-30T01:25:13;7.70;;;4.53;;
16391;SDS011;8305;-33.882;151.134;2023-09-30T01:27:45;6.32;;;4.03;;
16391;SDS011;8305;-33.882;151.134;2023-09-30T01:30:17;5.72;;;3.80;;
16391;SDS011;8305;-33.882;151.134;2023-09-30T01:32:48;5.97;;;3.60;;
16391;SDS011;8305;-33.882;151.134;2023-09-30T01:35:19;6.10;;;3.70;;
16391;SDS011;8305;-33.882;151.134;2023-09-30T01:37:52;6.57;;;3.95;;
16391;SDS011;8305;-33.882;151.134;2023-09-30T01:40:23;5.47;;;4.15;;
16391;SDS011;8305;-33.882;151.134;2023-09-30T01:42:55;4.93;;;4.15;;
16391;SDS011;8305;-33.882;151.134;2023-09-30T01:45:27;6.43;;;4.45;;
16391;SDS011;8305;-33.882;151.134;2023-09-30T01:47:57;6.97;;;4.63;;
16391;SDS011;8305;-33.882;151.134;2023-09-30T01:50:28;6.18;;;4.13;;
16391;SDS011;8305;-33.882;151.134;2023-09-30T01:53:01;7.65;;;4.40;;
16391;SDS011;8305;-33.882;151.134;2023-09-30T01:55:32;8.85;;;4.85;;
16391;SDS011;8305;-33.882;151.134;2023-09-30T01:58:03;7.85;;;4.80;;
16391;SDS011;8305;-33.882;151.134;2023-09-30T02:00:37;5.97;;;4.80;;
16391;SDS011;8305;-33.882;151.134;2023-09-30T02:03:08;9.75;;;5.32;;
16391;SDS011;8305;-33.882;151.134;2023-09-30T02:05:39;5.82;;;4.85;;
16391;SDS011;8305;-33.882;151.134;2023-09-30T02:08:12;8.88;;;5.30;;
16391;SDS011;8305;-33.882;151.134;2023-09-30T02:10:44;10.15;;;4.85;;
16391;SDS011;8305;-33.882;151.134;2023-09-30T02:13:15;7.10;;;4.80;;
16391;SDS011;8305;-33.882;151.134;2023-09-30T02:15:46;9.75;;;5.03;;
16391;SDS011;8305;-33.882;151.134;2023-09-30T02:18:17;8.73;;;5.00;;
16391;SDS011;8305;-33.882;151.134;2023-09-30T02:20:47;7.55;;;4.88;;
16391;SDS011;8305;-33.882;151.134;2023-09-30T02:23:21;10.02;;;4.80;;
16391;SDS011;8305;-33.882;151.134;2023-09-30T02:25:52;7.78;;;4.65;;
16391;SDS011;8305;-33.882;151.134;2023-09-30T02:28:22;9.32;;;4.80;;
16391;SDS011;8305;-33.882;151.134;2023-09-30T02:30:53;8.68;;;4.70;;
16391;SDS011;8305;-33.882;151.134;2023-09-30T02:33:24;9.43;;;5.03;;
16391;SDS011;8305;-33.882;151.134;2023-09-30T02:35:55;10.00;;;5.03;;
16391;SDS011;8305;-33.882;151.134;2023-09-30T02:38:27;7.03;;;5.07;;
16391;SDS011;8305;-33.882;151.134;2023-09-30T02:40:58;8.27;;;4.85;;
16391;SDS011;8305;-33.882;151.134;2023-09-30T02:43:29;7.25;;;5.00;;
16391;SDS011;8305;-33.882;151.134;2023-09-30T02:46:00;7.25;;;4.78;;
16391;SDS011;8305;-33.882;151.134;2023-09-30T02:48:31;8.35;;;4.60;;
16391;SDS011;8305;-33.882;151.134;2023-09-30T02:51:01;7.25;;;4.40;;
16391;SDS011;8305;-33.882;151.134;2023-09-30T02:53:34;6.57;;;4.63;;
16391;SDS011;8305;-33.882;151.134;2023-09-30T02:56:05;7.47;;;4.43;;
16391;SDS011;8305;-33.882;151.134;2023-09-30T02:58:36;6.47;;;4.22;;
16391;SDS011;8305;-33.882;151.134;2023-09-30T03:01:07;9.00;;;4.15;;
16391;SDS011;8305;-33.882;151.134;2023-09-30T03:03:39;7.75;;;4.25;;
16391;SDS011;8305;-33.882;151.134;2023-09-30T03:06:10;6.78;;;4.45;;
16391;SDS011;8305;-33.882;151.134;2023-09-30T03:08:43;8.43;;;4.70;;
16391;SDS011;8305;-33.882;151.134;2023-09-30T03:11:14;7.55;;;4.43;;
16391;SDS011;8305;-33.882;151.134;2023-09-30T03:13:46;9.80;;;4.68;;
16391;SDS011;8305;-33.882;151.134;2023-09-30T03:16:16;6.35;;;3.95;;
16391;SDS011;8305;-33.882;151.134;2023-09-30T03:18:48;6.10;;;4.32;;
16391;SDS011;8305;-33.882;151.134;2023-09-30T03:21:22;8.02;;;4.82;;
16391;SDS011;8305;-33.882;151.134;2023-09-30T03:23:55;7.57;;;4.55;;
16391;SDS011;8305;-33.882;151.134;2023-09-30T03:26:26;11.65;;;4.88;;
16391;SDS011;8305;-33.882;151.134;2023-09-30T03:28:59;9.00;;;4.78;;
16391;SDS011;8305;-33.882;151.134;2023-09-30T03:31:31;7.60;;;4.53;;
16391;SDS011;8305;-33.882;151.134;2023-09-30T03:34:02;7.07;;;4.65;;
16391;SDS011;8305;-33.882;151.134;2023-09-30T03:36:34;8.00;;;4.70;;
16391;SDS011;8305;-33.882;151.134;2023-09-30T03:39:09;9.15;;;5.00;;
16391;SDS011;8305;-33.882;151.134;2023-09-30T03:41:41;8.75;;;4.97;;
16391;SDS011;8305;-33.882;151.134;2023-09-30T03:44:12;8.70;;;4.75;;
16391;SDS011;8305;-33.882;151.134;2023-09-30T03:46:42;7.82;;;4.82;;
16391;SDS011;8305;-33.882;151.134;2023-09-30T03:49:13;5.90;;;4.93;;
16391;SDS011;8305;-33.882;151.134;2023-09-30T03:51:46;8.63;;;5.10;;
16391;SDS011;8305;-33.882;151.134;2023-09-30T03:54:19;8.98;;;5.15;;
16391;SDS011;8305;-33.882;151.134;2023-09-30T03:56:50;9.75;;;5.35;;
16391;SDS011;8305;-33.882;151.134;2023-09-30T03:59:20;7.15;;;4.63;;
16391;SDS011;8305;-33.882;151.134;2023-09-30T04:01:52;9.05;;;5.00;;
16391;SDS011;8305;-33.882;151.134;2023-09-30T04:04:24;8.77;;;5.05;;
16391;SDS011;8305;-33.882;151.134;2023-09-30T04:06:56;7.15;;;4.53;;
16391;SDS011;8305;-33.882;151.134;2023-09-30T04:09:28;6.10;;;4.32;;
16391;SDS011;8305;-33.882;151.134;2023-09-30T04:11:59;7.10;;;4.72;;
16391;SDS011;8305;-33.882;151.134;2023-09-30T04:14:30;6.18;;;4.80;;
16391;SDS011;8305;-33.882;151.134;2023-09-30T04:17:01;7.88;;;4.70;;
16391;SDS011;8305;-33.882;151.134;2023-09-30T04:19:31;7.80;;;4.68;;
16391;SDS011;8305;-33.882;151.134;2023-09-30T04:22:02;7.43;;;4.57;;
16391;SDS011;8305;-33.882;151.134;2023-09-30T04:24:36;8.52;;;4.72;;
16391;SDS011;8305;-33.882;151.134;2023-09-30T04:27:07;6.82;;;4.25;;
16391;SDS011;8305;-33.882;151.134;2023-09-30T04:29:38;6.28;;;4.30;;
16391;SDS011;8305;-33.882;151.134;2023-09-30T04:32:09;7.25;;;4.32;;
16391;SDS011;8305;-33.882;151.134;2023-09-30T04:34:40;6.82;;;4.10;;
16391;SDS011;8305;-33.882;151.134;2023-09-30T04:37:10;9.32;;;4.35;;
16391;SDS011;8305;-33.882;151.134;2023-09-30T04:39:43;10.77;;;4.00;;
16391;SDS011;8305;-33.882;151.134;2023-09-30T04:42:15;9.15;;;3.80;;
16391;SDS011;8305;-33.882;151.134;2023-09-30T04:44:45;9.35;;;3.78;;
16391;SDS011;8305;-33.882;151.134;2023-09-30T04:47:16;8.02;;;4.00;;
16391;SDS011;8305;-33.882;151.134;2023-09-30T04:49:47;8.98;;;3.70;;
16391;SDS011;8305;-33.882;151.134;2023-09-30T04:52:18;5.97;;;4.18;;
16391;SDS011;8305;-33.882;151.134;2023-09-30T04:54:55;6.95;;;3.85;;
16391;SDS011;8305;-33.882;151.134;2023-09-30T04:57:26;5.63;;;3.88;;
16391;SDS011;8305;-33.882;151.134;2023-09-30T04:59:57;7.35;;;3.78;;
16391;SDS011;8305;-33.882;151.134;2023-09-30T05:02:36;8.85;;;4.05;;
16391;SDS011;8305;-33.882;151.134;2023-09-30T05:05:08;6.90;;;3.90;;
16391;SDS011;8305;-33.882;151.134;2023-09-30T05:07:39;7.57;;;3.45;;
16391;SDS011;8305;-33.882;151.134;2023-09-30T05:10:12;10.10;;;4.05;;
16391;SDS011;8305;-33.882;151.134;2023-09-30T05:12:43;11.35;;;4.00;;
16391;SDS011;8305;-33.882;151.134;2023-09-30T05:15:14;7.55;;;4.18;;
16391;SDS011;8305;-33.882;151.134;2023-09-30T05:17:45;7.72;;;3.75;;
16391;SDS011;8305;-33.882;151.134;2023-09-30T05:20:16;7.30;;;3.88;;
16391;SDS011;8305;-33.882;151.134;2023-09-30T05:22:48;10.18;;;3.97;;
16391;SDS011;8305;-33.882;151.134;2023-09-30T05:25:21;9.50;;;4.60;;
16391;SDS011;8305;-33.882;151.134;2023-09-30T05:27:54;7.53;;;3.67;;
16391;SDS011;8305;-33.882;151.134;2023-09-30T05:30:24;6.82;;;3.97;;
16391;SDS011;8305;-33.882;151.134;2023-09-30T05:32:55;9.75;;;4.20;;
16391;SDS011;8305;-33.882;151.134;2023-09-30T05:35:26;11.55;;;4.18;;
16391;SDS011;8305;-33.882;151.134;2023-09-30T05:37:57;6.60;;;3.90;;
16391;SDS011;8305;-33.882;151.134;2023-09-30T05:40:32;7.80;;;4.13;;
16391;SDS011;8305;-33.882;151.134;2023-09-30T05:43:03;6.78;;;3.80;;
16391;SDS011;8305;-33.882;151.134;2023-09-30T05:45:33;10.68;;;4.30;;
16391;SDS011;8305;-33.882;151.134;2023-09-30T05:48:04;11.10;;;4.03;;
16391;SDS011;8305;-33.882;151.134;2023-09-30T05:50:37;8.75;;;4.43;;
16391;SDS011;8305;-33.882;151.134;2023-09-30T05:53:08;8.98;;;4.07;;
16391;SDS011;8305;-33.882;151.134;2023-09-30T05:55:41;8.82;;;4.15;;
16391;SDS011;8305;-33.882;151.134;2023-09-30T05:58:13;10.63;;;4.00;;
16391;SDS011;8305;-33.882;151.134;2023-09-30T06:00:44;7.85;;;3.75;;
16391;SDS011;8305;-33.882;151.134;2023-09-30T06:03:16;8.18;;;3.88;;
16391;SDS011;8305;-33.882;151.134;2023-09-30T06:05:47;8.00;;;4.18;;
16391;SDS011;8305;-33.882;151.134;2023-09-30T06:08:18;8.77;;;4.30;;
16391;SDS011;8305;-33.882;151.134;2023-09-30T06:10:51;7.07;;;3.97;;
16391;SDS011;8305;-33.882;151.134;2023-09-30T06:13:21;11.32;;;4.55;;
16391;SDS011;8305;-33.882;151.134;2023-09-30T06:15:53;10.18;;;4.05;;
16391;SDS011;8305;-33.882;151.134;2023-09-30T06:18:24;9.18;;;4.50;;
16391;SDS011;8305;-33.882;151.134;2023-09-30T06:20:54;13.30;;;4.57;;
16391;SDS011;8305;-33.882;151.134;2023-09-30T06:23:25;7.80;;;4.60;;
16391;SDS011;8305;-33.882;151.134;2023-09-30T06:25:58;10.50;;;4.22;;
16391;SDS011;8305;-33.882;151.134;2023-09-30T06:28:30;8.27;;;4.20;;
16391;SDS011;8305;-33.882;151.134;2023-09-30T06:31:06;8.30;;;4.35;;
16391;SDS011;8305;-33.882;151.134;2023-09-30T06:33:37;6.93;;;4.30;;
16391;SDS011;8305;-33.882;151.134;2023-09-30T06:36:09;6.72;;;3.85;;
16391;SDS011;8305;-33.882;151.134;2023-09-30T06:38:41;10.55;;;3.92;;
16391;SDS011;8305;-33.882;151.134;2023-09-30T06:41:19;6.25;;;3.65;;
16391;SDS011;8305;-33.882;151.134;2023-09-30T06:43:50;9.15;;;3.50;;
16391;SDS011;8305;-33.882;151.134;2023-09-30T06:46:20;7.13;;;3.72;;
16391;SDS011;8305;-33.882;151.134;2023-09-30T06:48:52;8.57;;;3.75;;
16391;SDS011;8305;-33.882;151.134;2023-09-30T06:51:23;5.47;;;3.17;;
16391;SDS011;8305;-33.882;151.134;2023-09-30T06:53:53;7.38;;;3.35;;
16391;SDS011;8305;-33.882;151.134;2023-09-30T06:56:26;7.03;;;3.30;;
16391;SDS011;8305;-33.882;151.134;2023-09-30T06:58:57;8.30;;;3.50;;
16391;SDS011;8305;-33.882;151.134;2023-09-30T07:01:27;10.73;;;3.53;;
16391;SDS011;8305;-33.882;151.134;2023-09-30T07:03:58;8.02;;;3.47;;
16391;SDS011;8305;-33.882;151.134;2023-09-30T07:06:29;9.25;;;3.40;;
16391;SDS011;8305;-33.882;151.134;2023-09-30T07:09:00;8.25;;;3.40;;
16391;SDS011;8305;-33.882;151.134;2023-09-30T07:11:32;8.35;;;3.58;;
16391;SDS011;8305;-33.882;151.134;2023-09-30T07:14:04;8.95;;;3.35;;
16391;SDS011;8305;-33.882;151.134;2023-09-30T07:16:35;8.10;;;3.45;;
16391;SDS011;8305;-33.882;151.134;2023-09-30T07:19:06;7.70;;;3.83;;
16391;SDS011;8305;-33.882;151.134;2023-09-30T07:21:36;9.57;;;4.13;;
16391;SDS011;8305;-33.882;151.134;2023-09-30T07:24:07;7.60;;;3.20;;
16391;SDS011;8305;-33.882;151.134;2023-09-30T07:26:40;9.10;;;3.90;;
16391;SDS011;8305;-33.882;151.134;2023-09-30T07:29:11;8.57;;;3.28;;
16391;SDS011;8305;-33.882;151.134;2023-09-30T07:31:42;13.88;;;3.58;;
16391;SDS011;8305;-33.882;151.134;2023-09-30T07:34:12;9.80;;;3.63;;
16391;SDS011;8305;-33.882;151.134;2023-09-30T07:36:43;8.20;;;3.33;;
16391;SDS011;8305;-33.882;151.134;2023-09-30T07:39:14;7.95;;;3.50;;
16391;SDS011;8305;-33.882;151.134;2023-09-30T07:41:47;6.63;;;3.53;;
16391;SDS011;8305;-33.882;151.134;2023-09-30T07:44:18;7.57;;;3.00;;
16391;SDS011;8305;-33.882;151.134;2023-09-30T07:46:49;6.63;;;3.47;;
16391;SDS011;8305;-33.882;151.134;2023-09-30T07:49:19;6.47;;;3.20;;
16391;SDS011;8305;-33.882;151.134;2023-09-30T07:51:50;9.63;;;3.47;;
16391;SDS011;8305;-33.882;151.134;2023-09-30T07:54:21;11.80;;;3.83;;
16391;SDS011;8305;-33.882;151.134;2023-09-30T07:56:54;8.20;;;3.45;;
16391;SDS011;8305;-33.882;151.134;2023-09-30T07:59:25;10.05;;;3.28;;
16391;SDS011;8305;-33.882;151.134;2023-09-30T08:01:56;8.82;;;3.60;;
16391;SDS011;8305;-33.882;151.134;2023-09-30T08:04:27;8.77;;;3.63;;
16391;SDS011;8305;-33.882;151.134;2023-09-30T08:06:58;6.78;;;3.17;;
16391;SDS011;8305;-33.882;151.134;2023-09-30T08:09:29;8.65;;;3.13;;
16391;SDS011;8305;-33.882;151.134;2023-09-30T08:12:02;10.35;;;3.40;;
16391;SDS011;8305;-33.882;151.134;2023-09-30T08:14:33;8.30;;;3.20;;
16391;SDS011;8305;-33.882;151.134;2023-09-30T08:17:03;8.35;;;3.33;;
16391;SDS011;8305;-33.882;151.134;2023-09-30T08:19:34;7.45;;;3.22;;
16391;SDS011;8305;-33.882;151.134;2023-09-30T08:22:06;6.72;;;3.58;;
16391;SDS011;8305;-33.882;151.134;2023-09-30T08:24:36;6.45;;;3.45;;
16391;SDS011;8305;-33.882;151.134;2023-09-30T08:27:09;5.93;;;3.20;;
16391;SDS011;8305;-33.882;151.134;2023-09-30T08:29:40;7.43;;;3.65;;
16391;SDS011;8305;-33.882;151.134;2023-09-30T08:32:11;6.78;;;3.60;;
16391;SDS011;8305;-33.882;151.134;2023-09-30T08:34:41;6.13;;;3.40;;
16391;SDS011;8305;-33.882;151.134;2023-09-30T08:37:12;7.25;;;3.25;;
16391;SDS011;8305;-33.882;151.134;2023-09-30T08:39:43;9.13;;;3.00;;
16391;SDS011;8305;-33.882;151.134;2023-09-30T08:42:15;6.93;;;3.15;;
16391;SDS011;8305;-33.882;151.134;2023-09-30T08:44:51;6.40;;;2.80;;
16391;SDS011;8305;-33.882;151.134;2023-09-30T08:47:24;5.93;;;2.90;;
16391;SDS011;8305;-33.882;151.134;2023-09-30T08:49:57;7.13;;;2.90;;
16391;SDS011;8305;-33.882;151.134;2023-09-30T08:52:32;7.55;;;3.30;;
16391;SDS011;8305;-33.882;151.134;2023-09-30T08:55:03;9.45;;;3.00;;
16391;SDS011;8305;-33.882;151.134;2023-09-30T08:57:38;5.15;;;2.88;;
16391;SDS011;8305;-33.882;151.134;2023-09-30T09:00:09;5.60;;;3.00;;
16391;SDS011;8305;-33.882;151.134;2023-09-30T09:02:42;7.38;;;2.70;;
16391;SDS011;8305;-33.882;151.134;2023-09-30T09:05:13;5.53;;;2.90;;
16391;SDS011;8305;-33.882;151.134;2023-09-30T09:07:44;9.23;;;2.90;;
16391;SDS011;8305;-33.882;151.134;2023-09-30T09:10:16;5.93;;;3.00;;
16391;SDS011;8305;-33.882;151.134;2023-09-30T09:12:54;6.63;;;2.70;;
16391;SDS011;8305;-33.882;151.134;2023-09-30T09:15:26;8.45;;;3.10;;
16391;SDS011;8305;-33.882;151.134;2023-09-30T09:17:57;5.95;;;2.70;;
16391;SDS011;8305;-33.882;151.134;2023-09-30T09:20:28;7.55;;;2.78;;
16391;SDS011;8305;-33.882;151.134;2023-09-30T09:23:00;6.57;;;2.90;;
16391;SDS011;8305;-33.882;151.134;2023-09-30T09:25:38;6.47;;;2.65;;
16391;SDS011;8305;-33.882;151.134;2023-09-30T09:28:12;5.95;;;2.60;;
16391;SDS011;8305;-33.882;151.134;2023-09-30T09:30:45;5.90;;;2.88;;
16391;SDS011;8305;-33.882;151.134;2023-09-30T09:33:16;4.90;;;2.40;;
16391;SDS011;8305;-33.882;151.134;2023-09-30T09:35:48;4.93;;;2.60;;
16391;SDS011;8305;-33.882;151.134;2023-09-30T09:38:18;5.72;;;2.60;;
16391;SDS011;8305;-33.882;151.134;2023-09-30T09:40:49;4.93;;;2.33;;
16391;SDS011;8305;-33.882;151.134;2023-09-30T09:43:22;4.25;;;2.30;;
16391;SDS011;8305;-33.882;151.134;2023-09-30T09:45:52;5.40;;;2.50;;
16391;SDS011;8305;-33.882;151.134;2023-09-30T09:48:29;5.78;;;2.40;;
16391;SDS011;8305;-33.882;151.134;2023-09-30T09:51:00;6.30;;;2.50;;
16391;SDS011;8305;-33.882;151.134;2023-09-30T09:53:34;5.13;;;2.50;;
16391;SDS011;8305;-33.882;151.134;2023-09-30T09:56:07;4.75;;;2.55;;
16391;SDS011;8305;-33.882;151.134;2023-09-30T09:58:40;6.28;;;2.42;;
16391;SDS011;8305;-33.882;151.134;2023-09-30T10:01:11;6.20;;;2.70;;
16391;SDS011;8305;-33.882;151.134;2023-09-30T10:03:42;6.07;;;2.60;;
16391;SDS011;8305;-33.882;151.134;2023-09-30T10:06:13;4.55;;;2.10;;
16391;SDS011;8305;-33.882;151.134;2023-09-30T10:08:46;6.30;;;2.45;;
16391;SDS011;8305;-33.882;151.134;2023-09-30T10:11:20;6.53;;;2.50;;
16391;SDS011;8305;-33.882;151.134;2023-09-30T10:13:58;4.00;;;2.13;;
16391;SDS011;8305;-33.882;151.134;2023-09-30T10:16:48;5.38;;;2.67;;
16391;SDS011;8305;-33.882;151.134;2023-09-30T10:19:20;5.10;;;2.85;;
16391;SDS011;8305;-33.882;151.134;2023-09-30T10:24:52;4.10;;;2.47;;
16391;SDS011;8305;-33.882;151.134;2023-09-30T10:27:29;5.18;;;2.60;;
16391;SDS011;8305;-33.882;151.134;2023-09-30T10:30:11;7.00;;;2.60;;
16391;SDS011;8305;-33.882;151.134;2023-09-30T10:35:43;5.45;;;2.78;;
16391;SDS011;8305;-33.882;151.134;2023-09-30T10:41:13;7.25;;;2.80;;
16391;SDS011;8305;-33.882;151.134;2023-09-30T10:44:32;5.40;;;2.90;;
16391;SDS011;8305;-33.882;151.134;2023-09-30T10:53:11;5.63;;;3.10;;
16391;SDS011;8305;-33.882;151.134;2023-09-30T10:55:42;6.15;;;3.22;;
16391;SDS011;8305;-33.882;151.134;2023-09-30T10:58:14;5.43;;;2.83;;
16391;SDS011;8305;-33.882;151.134;2023-09-30T11:00:52;5.68;;;2.95;;
16391;SDS011;8305;-33.882;151.134;2023-09-30T11:03:26;5.93;;;3.10;;
16391;SDS011;8305;-33.882;151.134;2023-09-30T11:05:56;6.03;;;2.95;;
16391;SDS011;8305;-33.882;151.134;2023-09-30T11:08:28;5.85;;;3.00;;
16391;SDS011;8305;-33.882;151.134;2023-09-30T11:11:00;7.40;;;3.10;;
16391;SDS011;8305;-33.882;151.134;2023-09-30T11:13:33;4.53;;;2.83;;
16391;SDS011;8305;-33.882;151.134;2023-09-30T11:16:05;8.10;;;3.42;;
16391;SDS011;8305;-33.882;151.134;2023-09-30T11:18:38;7.20;;;3.05;;
16391;SDS011;8305;-33.882;151.134;2023-09-30T11:21:09;10.00;;;3.90;;
16391;SDS011;8305;-33.882;151.134;2023-09-30T11:23:41;9.30;;;4.95;;
16391;SDS011;8305;-33.882;151.134;2023-09-30T11:26:12;8.40;;;4.78;;
16391;SDS011;8305;-33.882;151.134;2023-09-30T11:28:43;7.47;;;4.20;;
16391;SDS011;8305;-33.882;151.134;2023-09-30T11:31:14;7.38;;;4.22;;
16391;SDS011;8305;-33.882;151.134;2023-09-30T11:33:51;8.85;;;4.20;;
16391;SDS011;8305;-33.882;151.134;2023-09-30T11:36:24;7.68;;;4.18;;
16391;SDS011;8305;-33.882;151.134;2023-09-30T11:38:54;6.13;;;3.67;;
16391;SDS011;8305;-33.882;151.134;2023-09-30T11:41:32;10.98;;;3.75;;
16391;SDS011;8305;-33.882;151.134;2023-09-30T11:44:05;9.93;;;3.53;;
16391;SDS011;8305;-33.882;151.134;2023-09-30T11:46:49;6.90;;;3.20;;
16391;SDS011;8305;-33.882;151.134;2023-09-30T11:49:29;9.88;;;3.60;;
16391;SDS011;8305;-33.882;151.134;2023-09-30T11:52:01;5.07;;;2.97;;
16391;SDS011;8305;-33.882;151.134;2023-09-30T11:54:34;7.95;;;4.00;;
16391;SDS011;8305;-33.882;151.134;2023-09-30T11:57:05;7.45;;;3.67;;
16391;SDS011;8305;-33.882;151.134;2023-09-30T11:59:37;10.27;;;4.28;;
16391;SDS011;8305;-33.882;151.134;2023-09-30T12:02:09;6.53;;;3.53;;
16391;SDS011;8305;-33.882;151.134;2023-09-30T12:04:42;8.68;;;3.78;;
16391;SDS011;8305;-33.882;151.134;2023-09-30T12:07:15;7.72;;;3.60;;
16391;SDS011;8305;-33.882;151.134;2023-09-30T12:09:46;4.72;;;3.20;;
16391;SDS011;8305;-33.882;151.134;2023-09-30T12:12:16;7.22;;;3.72;;
16391;SDS011;8305;-33.882;151.134;2023-09-30T12:14:47;8.05;;;3.10;;
16391;SDS011;8305;-33.882;151.134;2023-09-30T12:17:18;6.03;;;3.28;;
16391;SDS011;8305;-33.882;151.134;2023-09-30T12:19:51;6.13;;;3.30;;
16391;SDS011;8305;-33.882;151.134;2023-09-30T12:22:22;7.32;;;3.35;;
16391;SDS011;8305;-33.882;151.134;2023-09-30T12:24:53;4.57;;;2.97;;
16391;SDS011;8305;-33.882;151.134;2023-09-30T12:27:23;8.20;;;3.67;;
16391;SDS011;8305;-33.882;151.134;2023-09-30T12:29:54;7.03;;;3.78;;
16391;SDS011;8305;-33.882;151.134;2023-09-30T12:32:26;6.20;;;3.25;;
16391;SDS011;8305;-33.882;151.134;2023-09-30T12:34:59;6.75;;;3.35;;
16391;SDS011;8305;-33.882;151.134;2023-09-30T12:37:30;6.15;;;3.45;;
16391;SDS011;8305;-33.882;151.134;2023-09-30T12:40:01;5.88;;;3.45;;
16391;SDS011;8305;-33.882;151.134;2023-09-30T12:42:33;7.47;;;3.55;;
16391;SDS011;8305;-33.882;151.134;2023-09-30T12:45:03;7.13;;;3.90;;
16391;SDS011;8305;-33.882;151.134;2023-09-30T12:47:35;7.93;;;4.30;;
16391;SDS011;8305;-33.882;151.134;2023-09-30T12:50:08;6.35;;;3.58;;
16391;SDS011;8305;-33.882;151.134;2023-09-30T12:52:39;10.20;;;4.18;;
16391;SDS011;8305;-33.882;151.134;2023-09-30T12:55:10;9.15;;;4.00;;
16391;SDS011;8305;-33.882;151.134;2023-09-30T12:57:42;8.82;;;3.92;;
16391;SDS011;8305;-33.882;151.134;2023-09-30T13:00:16;7.80;;;3.95;;
16391;SDS011;8305;-33.882;151.134;2023-09-30T13:02:56;10.88;;;4.53;;
16391;SDS011;8305;-33.882;151.134;2023-09-30T13:05:45;12.80;;;4.00;;
16391;SDS011;8305;-33.882;151.134;2023-09-30T13:08:20;6.70;;;3.92;;
16391;SDS011;8305;-33.882;151.134;2023-09-30T13:10:51;9.55;;;3.80;;
16391;SDS011;8305;-33.882;151.134;2023-09-30T13:13:22;9.43;;;3.67;;
16391;SDS011;8305;-33.882;151.134;2023-09-30T13:16:04;7.00;;;3.90;;
16391;SDS011;8305;-33.882;151.134;2023-09-30T13:18:42;9.93;;;3.80;;
16391;SDS011;8305;-33.882;151.134;2023-09-30T13:21:15;7.65;;;3.40;;
16391;SDS011;8305;-33.882;151.134;2023-09-30T13:23:46;9.48;;;3.95;;
16391;SDS011;8305;-33.882;151.134;2023-09-30T13:26:21;8.48;;;3.75;;
16391;SDS011;8305;-33.882;151.134;2023-09-30T13:28:53;10.60;;;4.40;;
16391;SDS011;8305;-33.882;151.134;2023-09-30T13:31:27;6.88;;;4.05;;
16391;SDS011;8305;-33.882;151.134;2023-09-30T13:33:58;8.68;;;3.95;;
16391;SDS011;8305;-33.882;151.134;2023-09-30T13:36:31;8.63;;;4.10;;
16391;SDS011;8305;-33.882;151.134;2023-09-30T13:39:02;7.75;;;3.75;;
16391;SDS011;8305;-33.882;151.134;2023-09-30T13:41:37;11.20;;;4.45;;
16391;SDS011;8305;-33.882;151.134;2023-09-30T13:44:07;8.38;;;4.15;;
16391;SDS011;8305;-33.882;151.134;2023-09-30T13:46:39;9.52;;;4.20;;
16391;SDS011;8305;-33.882;151.134;2023-09-30T13:49:10;9.88;;;4.35;;
16391;SDS011;8305;-33.882;151.134;2023-09-30T13:51:42;16.92;;;5.07;;
16391;SDS011;8305;-33.882;151.134;2023-09-30T13:54:13;9.20;;;4.45;;
16391;SDS011;8305;-33.882;151.134;2023-09-30T13:56:44;13.25;;;5.07;;
16391;SDS011;8305;-33.882;151.134;2023-09-30T13:59:15;9.93;;;4.45;;
16391;SDS011;8305;-33.882;151.134;2023-09-30T14:01:45;11.55;;;4.57;;
16391;SDS011;8305;-33.882;151.134;2023-09-30T14:04:16;12.30;;;4.60;;
16391;SDS011;8305;-33.882;151.134;2023-09-30T14:06:50;10.38;;;4.45;;
16391;SDS011;8305;-33.882;151.134;2023-09-30T14:09:22;15.90;;;4.70;;
16391;SDS011;8305;-33.882;151.134;2023-09-30T14:11:53;18.75;;;5.65;;
16391;SDS011;8305;-33.882;151.134;2023-09-30T14:14:24;14.85;;;4.53;;
16391;SDS011;8305;-33.882;151.134;2023-09-30T14:16:55;10.48;;;4.25;;
16391;SDS011;8305;-33.882;151.134;2023-09-30T14:19:26;9.35;;;4.28;;
16391;SDS011;8305;-33.882;151.134;2023-09-30T14:21:59;18.10;;;5.05;;
16391;SDS011;8305;-33.882;151.134;2023-09-30T14:24:30;12.95;;;4.80;;
16391;SDS011;8305;-33.882;151.134;2023-09-30T14:27:01;9.65;;;4.40;;
16391;SDS011;8305;-33.882;151.134;2023-09-30T14:29:33;11.57;;;4.70;;
16391;SDS011;8305;-33.882;151.134;2023-09-30T14:32:04;12.43;;;4.53;;
16391;SDS011;8305;-33.882;151.134;2023-09-30T14:34:35;13.98;;;5.05;;
16391;SDS011;8305;-33.882;151.134;2023-09-30T14:37:08;11.50;;;4.53;;
16391;SDS011;8305;-33.882;151.134;2023-09-30T14:39:39;12.05;;;4.78;;
16391;SDS011;8305;-33.882;151.134;2023-09-30T14:42:10;14.52;;;4.97;;
16391;SDS011;8305;-33.882;151.134;2023-09-30T14:44:40;10.35;;;4.68;;
16391;SDS011;8305;-33.882;151.134;2023-09-30T14:47:11;10.98;;;4.55;;
16391;SDS011;8305;-33.882;151.134;2023-09-30T14:49:42;11.23;;;4.18;;
16391;SDS011;8305;-33.882;151.134;2023-09-30T14:52:15;9.80;;;4.38;;
16391;SDS011;8305;-33.882;151.134;2023-09-30T14:54:45;8.80;;;4.68;;
16391;SDS011;8305;-33.882;151.134;2023-09-30T14:57:16;10.80;;;4.55;;
16391;SDS011;8305;-33.882;151.134;2023-09-30T14:59:47;12.27;;;4.53;;
16391;SDS011;8305;-33.882;151.134;2023-09-30T15:02:21;10.77;;;4.47;;